Time;durP1;ratioP1;P1;durP2;ratioP2;P2;SDS_P1;SDS_P2;PMS_P1;PMS_P2;Temp;Humidity;BMP_temperature;BMP_pressure;BME280_temperature;BME280_humidity;BME280_pressure;Samples;Min_cycle;Max_cycle;Signal;HPM_P1;HPM_P2
2021/06/26 00:02:04;;;;;;;7.78;3.78;;;;;;;28.56;36.43;96912.06;4932595;28;20039;-31
2021/06/26 00:04:30;;;;;;;6.40;3.63;;;;;;;28.56;36.58;96919.13;4964439;28;21834;-32
2021/06/26 00:06:55;;;;;;;4.28;3.65;;;;;;;28.57;36.50;96926.09;4935784;28;20494;-33
2021/06/26 00:09:21;;;;;;;3.53;3.22;;;;;;;28.57;36.45;96912.94;4932325;28;20793;-36
2021/06/26 00:11:48;;;;;;;4.38;3.20;;;;;;;28.57;36.72;96915.56;4933344;28;20031;-36
2021/06/26 00:14:14;;;;;;;5.72;3.80;;;;;;;28.57;36.71;96915.56;4946767;28;20030;-34
2021/06/26 00:16:39;;;;;;;4.80;3.50;;;;;;;28.57;36.50;96905.03;4936734;28;20045;-36
2021/06/26 00:19:05;;;;;;;7.95;3.47;;;;;;;28.57;36.52;96902.38;4937737;28;20027;-34
2021/06/26 00:21:30;;;;;;;5.97;3.75;;;;;;;28.58;36.61;96901.44;4936023;28;20768;-33
2021/06/26 00:23:55;;;;;;;7.55;3.60;;;;;;;28.58;36.39;96897.94;4937191;28;20029;-32
2021/06/26 00:26:21;;;;;;;6.13;3.40;;;;;;;28.58;36.41;96888.25;4930919;28;20038;-32
2021/06/26 00:28:46;;;;;;;6.18;3.33;;;;;;;28.58;36.52;96893.53;4934641;28;20039;-35
2021/06/26 00:31:12;;;;;;;5.22;3.45;;;;;;;28.58;36.86;96893.53;4934926;28;21042;-32
2021/06/26 00:33:37;;;;;;;4.53;3.10;;;;;;;28.58;36.23;96893.53;4936846;28;20125;-29
2021/06/26 00:36:03;;;;;;;3.70;3.30;;;;;;;28.58;36.47;96893.53;4935103;28;20094;-35
2021/06/26 00:38:29;;;;;;;5.03;3.60;;;;;;;28.58;36.63;96888.25;4929233;28;20037;-38
2021/06/26 00:40:54;;;;;;;4.47;3.33;;;;;;;28.59;36.44;96891.72;4929093;28;20035;-42
2021/06/26 00:43:20;;;;;;;4.88;3.55;;;;;;;28.58;36.51;96888.25;4933638;28;20612;-35
2021/06/26 00:45:45;;;;;;;4.50;3.50;;;;;;;28.58;36.75;96885.59;4932999;28;20030;-31
2021/06/26 00:48:11;;;;;;;6.22;2.90;;;;;;;28.58;36.51;96885.59;4932589;28;22561;-35
2021/06/26 00:50:36;;;;;;;4.72;3.28;;;;;;;28.58;36.64;96885.59;4931083;28;20784;-34
2021/06/26 00:53:02;;;;;;;4.13;3.15;;;;;;;28.58;36.69;96885.59;4933132;28;20026;-34
2021/06/26 00:55:28;;;;;;;3.70;3.10;;;;;;;28.59;36.58;96883.81;4935178;28;20026;-33
2021/06/26 00:57:58;;;;;;;5.82;3.22;;;;;;;28.59;36.12;96883.81;4949207;28;20031;-34
2021/06/26 01:00:30;;;;;;;4.40;3.20;;;;;;;28.59;36.45;96878.53;4932465;28;20031;-34
2021/06/26 01:02:55;;;;;;;8.68;3.17;;;;;;;28.59;36.43;96889.06;4931897;28;20027;-35
2021/06/26 01:05:21;;;;;;;5.47;3.05;;;;;;;28.59;36.71;96883.81;4936305;28;20030;-32
2021/06/26 01:07:47;;;;;;;3.53;2.92;;;;;;;28.54;36.77;96876.19;4934065;28;20114;-34
2021/06/26 01:10:12;;;;;;;3.53;2.97;;;;;;;28.59;36.64;96884.66;4936314;28;20062;-36
2021/06/26 01:12:38;;;;;;;6.57;3.70;;;;;;;28.59;36.69;96879.38;4936109;28;20154;-28
2021/06/26 01:15:05;;;;;;;7.43;3.03;;;;;;;28.59;36.38;96874.13;4950278;28;20577;-31
2021/06/26 01:17:30;;;;;;;7.03;3.30;;;;;;;28.59;36.80;96882.03;4939754;28;20070;-34
2021/06/26 01:19:56;;;;;;;5.45;3.38;;;;;;;28.59;36.61;96873.25;4937439;28;20078;-32
2021/06/26 01:22:22;;;;;;;4.18;3.33;;;;;;;28.59;36.53;96879.38;4937757;28;20035;-35
2021/06/26 01:24:50;;;;;;;7.53;3.30;;;;;;;28.59;36.67;96873.25;4940354;28;20031;-35
2021/06/26 01:27:16;;;;;;;3.20;2.78;;;;;;;28.59;36.54;96874.13;4934538;28;20090;-36
2021/06/26 01:29:53;;;;;;;3.88;3.03;;;;;;;28.59;36.56;96875.91;4938296;28;20027;-37
2021/06/26 01:32:18;;;;;;;4.97;3.25;;;;;;;28.59;36.39;96868.84;4934986;28;20114;-39
2021/06/26 01:34:44;;;;;;;5.13;3.10;;;;;;;28.59;36.59;96868.84;4939196;28;20138;-35
2021/06/26 01:37:10;;;;;;;4.97;2.90;;;;;;;28.60;36.58;96862.63;4949525;28;20197;-35
2021/06/26 01:39:35;;;;;;;5.40;3.20;;;;;;;28.60;36.56;96859.97;4948678;28;20573;-34
2021/06/26 01:42:00;;;;;;;3.72;3.00;;;;;;;28.60;36.30;96865.25;4937450;28;20039;-37
2021/06/26 01:44:26;;;;;;;5.80;3.20;;;;;;;28.59;36.65;96858.28;4949757;28;20034;-35
2021/06/26 01:46:51;;;;;;;5.70;3.03;;;;;;;28.60;36.73;96864.44;4940207;28;20673;-35
2021/06/26 01:49:18;;;;;;;4.32;3.05;;;;;;;28.60;36.78;96859.16;4936270;28;20541;-32
2021/06/26 01:51:43;;;;;;;4.47;3.05;;;;;;;28.60;36.72;96870.53;4932756;28;20031;-32
2021/06/26 01:54:11;;;;;;;4.47;2.97;;;;;;;28.60;36.83;96859.97;4934164;28;20034;-36
2021/06/26 01:56:37;;;;;;;7.70;2.92;;;;;;;28.61;36.68;96856.44;4941761;28;20610;-35
2021/06/26 01:59:03;;;;;;;3.75;3.10;;;;;;;28.61;36.74;96856.44;4936739;28;20039;-30
2021/06/26 02:01:28;;;;;;;4.45;3.00;;;;;;;28.60;36.97;96853.88;4935308;28;20054;-30
2021/06/26 02:03:54;;;;;;;4.28;3.20;;;;;;;28.61;36.39;96863.47;4938192;28;20038;-34
2021/06/26 02:06:19;;;;;;;4.53;2.97;;;;;;;28.61;36.78;96855.56;4938086;28;20023;-35
2021/06/26 02:08:44;;;;;;;3.67;3.10;;;;;;;28.55;36.68;96846.25;4934196;28;20731;-35
2021/06/26 02:11:10;;;;;;;4.28;3.30;;;;;;;28.61;36.38;96850.28;4932877;28;20043;-33
2021/06/26 02:13:35;;;;;;;4.57;2.85;;;;;;;28.61;36.51;96842.38;4931076;28;20547;-34
2021/06/26 02:16:00;;;;;;;3.40;3.00;;;;;;;28.61;36.65;96845.03;4967862;28;20027;-36
2021/06/26 02:18:26;;;;;;;4.90;2.95;;;;;;;28.61;36.63;96843.25;4936591;28;20257;-36
2021/06/26 02:20:52;;;;;;;4.60;3.15;;;;;;;28.61;36.64;96851.16;4934606;28;20041;-37
2021/06/26 02:23:17;;;;;;;4.85;3.00;;;;;;;28.61;36.61;96850.28;4937331;28;20034;-36
2021/06/26 02:25:43;;;;;;;3.85;3.22;;;;;;;28.61;36.63;96856.44;4935661;28;20118;-36
2021/06/26 02:28:08;;;;;;;8.75;2.80;;;;;;;28.57;36.75;96847.00;4933537;28;20816;-34
2021/06/26 02:30:33;;;;;;;5.55;2.90;;;;;;;28.61;36.67;96855.56;4936009;28;20043;-39
2021/06/26 02:32:59;;;;;;;4.00;3.28;;;;;;;28.61;36.59;96855.56;4936071;28;20050;-37
2021/06/26 02:35:24;;;;;;;4.85;2.90;;;;;;;28.61;36.58;96855.56;4937329;28;20610;-34
2021/06/26 02:37:50;;;;;;;3.20;2.75;;;;;;;28.60;36.65;96854.72;4934355;28;20027;-35
2021/06/26 02:40:15;;;;;;;3.97;3.00;;;;;;;28.61;36.67;96855.56;4934606;28;20035;-36
2021/06/26 02:42:41;;;;;;;7.22;3.17;;;;;;;28.60;36.59;96849.44;4936869;28;20089;-34
2021/06/26 02:45:07;;;;;;;6.05;3.40;;;;;;;28.61;36.57;96852.94;4934896;28;20541;-35
2021/06/26 02:47:32;;;;;;;7.20;3.20;;;;;;;28.60;36.47;96852.06;4940784;28;20090;-34
2021/06/26 02:49:58;;;;;;;4.82;3.00;;;;;;;28.61;36.68;96850.28;4937103;28;20546;-37
2021/06/26 02:52:23;;;;;;;3.90;3.10;;;;;;;28.61;36.66;96853.78;4936841;28;20117;-36
2021/06/26 02:54:49;;;;;;;5.53;3.17;;;;;;;28.61;36.71;96853.78;4934040;28;20030;-34
2021/06/26 02:57:15;;;;;;;3.35;3.05;;;;;;;28.61;36.58;96861.69;4935155;28;20034;-36
2021/06/26 02:59:41;;;;;;;5.63;2.65;;;;;;;28.61;36.49;96851.16;4936249;28;20248;-37
2021/06/26 03:02:06;;;;;;;5.03;2.97;;;;;;;28.61;36.70;96839.75;4935046;28;20035;-37
2021/06/26 03:04:32;;;;;;;4.10;2.80;;;;;;;28.61;36.68;96840.59;4935114;28;20038;-36
2021/06/26 03:06:57;;;;;;;4.80;3.13;;;;;;;28.62;36.41;96842.28;4935141;28;20023;-36
2021/06/26 03:09:22;;;;;;;4.63;3.00;;;;;;;28.61;36.45;96845.88;4966903;28;20038;-36
2021/06/26 03:11:48;;;;;;;6.93;2.70;;;;;;;28.61;36.77;96840.59;4932939;28;20026;-33
2021/06/26 03:14:13;;;;;;;3.28;2.50;;;;;;;28.62;36.37;96844.94;4935998;28;21165;-36
2021/06/26 03:16:38;;;;;;;4.95;2.90;;;;;;;28.62;36.78;96846.72;4937086;28;20038;-32
2021/06/26 03:19:04;;;;;;;4.68;3.20;;;;;;;28.62;36.77;96837.00;4936786;28;20046;-35
2021/06/26 03:21:29;;;;;;;4.35;2.90;;;;;;;28.61;36.59;96840.59;4937305;28;20038;-35
2021/06/26 03:23:55;;;;;;;5.10;2.67;;;;;;;28.61;36.61;96835.34;4934421;28;20585;-34
2021/06/26 03:26:20;;;;;;;4.05;2.75;;;;;;;28.61;36.50;96835.34;4937362;28;20049;-33
2021/06/26 03:28:45;;;;;;;3.53;2.65;;;;;;;28.55;36.73;96830.44;4949350;28;20046;-36
2021/06/26 03:31:12;;;;;;;3.47;2.85;;;;;;;28.61;36.68;96835.34;4931827;28;20142;-35
2021/06/26 03:33:37;;;;;;;7.32;3.00;;;;;;;28.61;36.59;96840.59;4935107;28;20031;-37
2021/06/26 03:36:03;;;;;;;3.85;3.25;;;;;;;28.60;36.72;96838.88;4934225;28;20038;-31
2021/06/26 03:38:28;;;;;;;7.18;2.90;;;;;;;28.60;36.76;96844.16;4935179;28;20118;-34
2021/06/26 03:40:54;;;;;;;5.38;2.72;;;;;;;28.60;36.65;96849.44;4933413;28;20027;-35
2021/06/26 03:43:19;;;;;;;7.32;2.70;;;;;;;28.61;36.57;96850.28;4962524;28;20894;-38
2021/06/26 03:45:45;;;;;;;5.03;2.88;;;;;;;28.59;36.46;96842.47;4932350;28;20635;-35
2021/06/26 03:48:10;;;;;;;5.78;2.75;;;;;;;28.61;36.56;96839.75;4936902;28;20573;-37
2021/06/26 03:50:37;;;;;;;5.13;2.95;;;;;;;28.60;36.49;96843.34;4933015;28;20038;-34
2021/06/26 03:53:03;;;;;;;4.03;3.05;;;;;;;28.60;36.74;96833.63;4933445;28;20121;-39
2021/06/26 03:55:28;;;;;;;4.68;2.85;;;;;;;28.61;36.45;96845.88;4935935;28;20038;-36
2021/06/26 03:57:53;;;;;;;3.83;2.80;;;;;;;28.61;36.64;96842.38;4932803;28;21068;-37
2021/06/26 04:00:19;;;;;;;4.00;3.10;;;;;;;28.60;36.48;96844.16;4934591;28;20082;-38
2021/06/26 04:02:44;;;;;;;3.42;2.67;;;;;;;28.60;36.68;96844.16;4931422;28;20035;-36
2021/06/26 04:05:10;;;;;;;3.03;2.65;;;;;;;28.60;36.54;96846.78;4936114;28;20061;-35
2021/06/26 04:07:35;;;;;;;3.63;2.78;;;;;;;28.59;36.48;96847.75;4929903;28;20098;-34
2021/06/26 04:10:01;;;;;;;3.00;2.70;;;;;;;28.61;36.56;96855.56;4934854;28;20470;-39
2021/06/26 04:12:26;;;;;;;4.22;2.72;;;;;;;28.60;36.48;96857.34;4937109;28;20077;-40
2021/06/26 04:14:51;;;;;;;6.05;2.70;;;;;;;28.60;36.46;96869.69;4947727;28;20324;-35
2021/06/26 04:17:17;;;;;;;4.53;2.63;;;;;;;28.60;36.43;96862.63;4949774;28;20038;-33
2021/06/26 04:19:42;;;;;;;3.40;2.67;;;;;;;28.61;36.88;96860.84;4947970;28;20768;-33
2021/06/26 04:22:08;;;;;;;3.13;2.70;;;;;;;28.60;36.57;96857.34;4934038;28;20026;-38
2021/06/26 04:24:33;;;;;;;5.13;2.80;;;;;;;28.61;36.62;96856.44;4932454;28;20033;-35
2021/06/26 04:26:58;;;;;;;3.80;2.70;;;;;;;28.60;36.49;96854.72;4934477;28;20030;-35
2021/06/26 04:29:24;;;;;;;3.63;2.80;;;;;;;28.61;36.61;96852.94;4937120;28;20382;-35
2021/06/26 04:31:49;;;;;;;8.98;2.90;;;;;;;28.62;36.56;96860.75;4932511;28;20739;-39
2021/06/26 04:34:15;;;;;;;6.13;3.20;;;;;;;28.61;36.49;96853.78;4936361;28;20035;-36
2021/06/26 04:36:41;;;;;;;5.28;3.03;;;;;;;28.61;36.67;96856.44;4952392;28;20674;-33
2021/06/26 04:39:07;;;;;;;5.93;2.88;;;;;;;28.62;36.46;96855.47;4932633;28;22110;-38
2021/06/26 04:41:36;;;;;;;4.85;2.88;;;;;;;28.62;36.62;96850.19;4934292;28;20141;-35
2021/06/26 04:44:01;;;;;;;3.33;2.70;;;;;;;28.62;36.63;96846.72;4933193;28;20069;-35
2021/06/26 04:46:27;;;;;;;4.18;2.58;;;;;;;28.62;36.63;96852.84;4931384;28;20034;-34
2021/06/26 04:48:52;;;;;;;3.10;2.53;;;;;;;28.62;36.52;96846.72;4930040;28;20057;-34
2021/06/26 04:51:18;;;;;;;4.20;2.88;;;;;;;28.62;36.54;96842.28;4931827;28;20061;-35
2021/06/26 04:53:44;;;;;;;3.50;2.85;;;;;;;28.63;36.70;96848.38;4944808;28;20489;-39
2021/06/26 04:56:09;;;;;;;2.92;2.53;;;;;;;28.63;36.44;96851.88;4945165;28;20038;-35
2021/06/26 04:58:35;;;;;;;3.10;2.80;;;;;;;28.62;36.42;96847.56;4932843;28;20145;-36
2021/06/26 05:01:00;;;;;;;3.95;3.20;;;;;;;28.62;36.83;96852.84;4924803;28;20110;-32
2021/06/26 05:03:25;;;;;;;4.40;2.80;;;;;;;28.63;36.66;96851.88;4935221;28;20038;-34
2021/06/26 05:05:51;;;;;;;4.60;2.97;;;;;;;28.64;36.70;96850.09;4931245;28;20512;-35
2021/06/26 05:08:17;;;;;;;3.28;2.70;;;;;;;28.64;36.59;96850.94;4966325;28;20075;-31
2021/06/26 05:10:42;;;;;;;5.13;2.88;;;;;;;28.65;36.59;96857.91;4933031;28;20101;-33
2021/06/26 05:13:08;;;;;;;3.95;2.80;;;;;;;28.64;36.77;96848.28;4934615;28;20034;-37
2021/06/26 05:15:33;;;;;;;6.40;3.05;;;;;;;28.65;36.67;96847.34;4932930;28;20041;-34
2021/06/26 05:17:59;;;;;;;4.28;2.90;;;;;;;28.66;36.60;96851.69;4938992;28;20031;-35
2021/06/26 05:20:24;;;;;;;3.78;2.90;;;;;;;28.64;36.61;96848.28;4934700;28;20046;-32
2021/06/26 05:22:49;;;;;;;3.13;2.53;;;;;;;28.66;36.73;96848.19;4946921;28;20085;-37
2021/06/26 05:25:15;;;;;;;3.85;3.03;;;;;;;28.66;36.66;96846.41;4929396;28;20145;-35
2021/06/26 05:27:41;;;;;;;4.43;2.80;;;;;;;28.66;36.66;96849.06;4930846;28;20046;-34
2021/06/26 05:30:07;;;;;;;3.28;2.72;;;;;;;28.67;36.86;96850.75;4935714;28;20057;-35
2021/06/26 05:32:32;;;;;;;4.13;2.75;;;;;;;28.68;36.67;96855.06;4943655;28;20040;-38
2021/06/26 05:34:57;;;;;;;3.63;2.83;;;;;;;28.68;36.65;96857.69;4929760;28;20038;-34
2021/06/26 05:37:23;;;;;;;5.25;2.88;;;;;;;28.68;36.85;96857.69;4932506;28;20765;-36
2021/06/26 05:39:48;;;;;;;6.32;3.10;;;;;;;28.68;36.77;96857.69;4929113;28;20023;-33
2021/06/26 05:42:13;;;;;;;6.93;2.85;;;;;;;28.69;36.56;96859.38;4938276;28;20038;-35
2021/06/26 05:44:39;;;;;;;4.30;2.80;;;;;;;28.69;36.73;96856.75;4929621;28;20462;-34
2021/06/26 05:47:04;;;;;;;6.95;3.03;;;;;;;28.69;36.64;96854.13;4934069;28;20066;-38
2021/06/26 05:49:30;;;;;;;3.78;3.10;;;;;;;28.70;36.87;96865.53;4925143;28;20058;-34
2021/06/26 05:51:55;;;;;;;6.70;3.22;;;;;;;28.69;36.92;96853.28;4932331;28;20023;-34
2021/06/26 05:54:20;;;;;;;4.95;3.22;;;;;;;28.70;36.85;96854.97;4950686;28;20035;-38
2021/06/26 05:56:46;;;;;;;4.05;3.10;;;;;;;28.71;36.89;96861.09;4931151;28;20027;-36
2021/06/26 05:59:11;;;;;;;5.00;3.10;;;;;;;28.71;36.55;96858.47;4934511;28;20038;-34
2021/06/26 06:01:37;;;;;;;3.83;3.08;;;;;;;28.70;37.07;96862.88;4932809;28;20039;-34
2021/06/26 06:04:02;;;;;;;3.22;2.92;;;;;;;28.69;36.64;96859.38;4932279;28;20023;-34
2021/06/26 06:06:28;;;;;;;3.60;2.78;;;;;;;28.69;36.98;96864.66;4937137;28;21016;-33
2021/06/26 06:08:53;;;;;;;5.25;2.72;;;;;;;28.70;36.73;96865.53;4939000;28;20101;-34
2021/06/26 06:11:19;;;;;;;3.53;2.85;;;;;;;28.71;37.05;96866.38;4935829;28;20022;-35
2021/06/26 06:13:44;;;;;;;3.53;3.00;;;;;;;28.71;37.13;96866.38;4938266;28;20755;-37
2021/06/26 06:16:10;;;;;;;3.90;3.10;;;;;;;28.71;37.02;96867.22;4932262;28;20035;-35
2021/06/26 06:18:35;;;;;;;5.03;3.08;;;;;;;28.71;36.77;96869.84;4939173;28;20034;-38
2021/06/26 06:21:01;;;;;;;4.57;3.05;;;;;;;28.72;37.04;96860.97;4937444;28;20030;-35
2021/06/26 06:23:26;;;;;;;7.55;3.10;;;;;;;28.73;37.02;96861.84;4937026;28;21014;-36
2021/06/26 06:25:53;;;;;;;8.23;3.30;;;;;;;28.72;37.00;96863.63;4933000;28;20473;-33
2021/06/26 06:28:19;;;;;;;5.50;3.50;;;;;;;28.69;37.21;96854.13;4933097;28;20792;-31
2021/06/26 06:30:44;;;;;;;3.97;3.03;;;;;;;28.73;37.05;96865.34;4937376;28;20050;-33
2021/06/26 06:33:10;;;;;;;2.95;2.53;;;;;;;28.73;37.02;96870.59;4931688;28;20030;-32
2021/06/26 06:35:35;;;;;;;6.05;3.00;;;;;;;28.74;37.10;96860.88;4937856;28;20051;-37
2021/06/26 06:38:00;;;;;;;17.90;3.53;;;;;;;28.73;37.32;96864.47;4931522;28;20022;-31
2021/06/26 06:40:26;;;;;;;12.45;7.00;;;;;;;28.74;36.82;96866.16;4934644;28;20054;-36
2021/06/26 06:42:51;;;;;;;11.77;7.53;;;;;;;28.73;37.25;96867.13;4937449;28;20491;-35
2021/06/26 06:45:17;;;;;;;10.15;7.97;;;;;;;28.71;37.14;96867.22;4935071;28;20064;-35
2021/06/26 06:47:42;;;;;;;14.55;8.20;;;;;;;28.69;36.51;96866.47;4935059;28;22378;-33
2021/06/26 06:50:09;;;;;;;10.20;7.85;;;;;;;28.66;36.60;96864.88;4929189;28;20039;-37
2021/06/26 06:52:34;;;;;;;11.98;8.95;;;;;;;28.62;36.52;96865.16;4927119;28;20046;-33
2021/06/26 06:55:00;;;;;;;12.30;8.52;;;;;;;28.58;36.63;96867.16;4934070;28;20031;-32
2021/06/26 06:57:25;;;;;;;11.88;8.18;;;;;;;28.56;36.79;96869.88;4935958;28;20406;-34
2021/06/26 06:59:53;;;;;;;9.63;7.78;;;;;;;28.52;36.76;96868.38;4931310;28;20030;-36
2021/06/26 07:02:19;;;;;;;11.32;9.25;;;;;;;28.50;36.81;96872.06;4932932;28;21077;-35
2021/06/26 07:04:45;;;;;;;11.90;10.70;;;;;;;28.46;36.24;96875.84;4924967;28;20051;-33
2021/06/26 07:07:22;;;;;;;12.20;10.15;;;;;;;28.46;36.24;96875.84;4934910;28;20684;-34
2021/06/26 07:09:56;;;;;;;13.27;9.48;;;;;;;28.46;36.24;96875.84;4930897;28;20193;-36
2021/06/26 07:13:20;;;;;;;14.88;10.40;;;;;;;-148.56;100.00;61375.16;4930059;28;20807;-36
2021/06/26 07:16:44;;;;;;;10.70;8.63;;;;;;;-148.56;100.00;61375.16;4962249;28;20898;-36
2021/06/26 07:20:08;;;;;;;12.38;9.60;;;;;;;-148.56;100.00;61375.16;4930467;28;20942;-35
2021/06/26 07:23:32;;;;;;;12.40;9.10;;;;;;;-148.56;100.00;61375.16;4929176;28;20031;-34
2021/06/26 07:26:56;;;;;;;10.40;8.48;;;;;;;-148.56;100.00;61375.16;4931528;28;20537;-33
2021/06/26 07:30:20;;;;;;;7.88;7.07;;;;;;;-148.56;100.00;61375.16;4929918;28;20038;-32
2021/06/26 07:33:44;;;;;;;9.63;6.93;;;;;;;-148.56;100.00;61375.16;4933927;28;20225;-31
2021/06/26 07:37:08;;;;;;;9.05;6.72;;;;;;;-148.56;100.00;61375.16;4930182;28;20121;-32
2021/06/26 07:40:32;;;;;;;9.40;7.05;;;;;;;-148.56;100.00;61375.16;4930091;28;20022;-35
2021/06/26 07:43:56;;;;;;;9.50;6.72;;;;;;;-148.56;100.00;61375.16;4931142;28;20051;-32
2021/06/26 07:47:20;;;;;;;11.20;7.60;;;;;;;-148.56;100.00;61375.16;4931391;28;20046;-35
2021/06/26 07:50:49;;;;;;;8.65;7.10;;;;;;;-148.56;100.00;61375.16;4925903;28;20035;-34
2021/06/26 07:54:16;;;;;;;8.63;7.18;;;;;;;-148.56;100.00;61375.16;4932789;28;20806;-32
2021/06/26 07:57:40;;;;;;;8.32;7.45;;;;;;;-148.56;100.00;61375.16;4958908;28;20144;-35
2021/06/26 08:01:05;;;;;;;7.50;6.30;;;;;;;-148.56;100.00;61375.16;4930149;28;20134;-37
2021/06/26 08:04:29;;;;;;;8.93;7.65;;;;;;;-148.56;100.00;61375.16;4930676;28;20059;-36
2021/06/26 08:07:53;;;;;;;7.43;6.22;;;;;;;-148.56;100.00;61375.16;4928696;28;20046;-36
2021/06/26 08:11:17;;;;;;;8.70;6.25;;;;;;;-148.56;100.00;61375.16;4930654;28;20049;-34
2021/06/26 08:14:41;;;;;;;8.98;6.82;;;;;;;-148.56;100.00;61375.16;4934406;28;20039;-33
2021/06/26 08:18:06;;;;;;;7.43;6.13;;;;;;;-148.56;100.00;61375.16;4933315;28;20077;-37
2021/06/26 08:21:30;;;;;;;7.57;6.10;;;;;;;-148.56;100.00;61375.16;4933467;28;20023;-35
2021/06/26 08:24:54;;;;;;;8.30;5.88;;;;;;;-148.56;100.00;61375.16;4929983;28;20118;-38
2021/06/26 08:28:18;;;;;;;8.65;6.43;;;;;;;-148.56;100.00;61375.16;4945647;28;20469;-35
2021/06/26 08:31:42;;;;;;;11.30;6.82;;;;;;;-148.56;100.00;61375.16;4930379;28;21891;-34
2021/06/26 08:35:06;;;;;;;9.23;5.80;;;;;;;-148.56;100.00;61375.16;4930291;28;20152;-31
2021/06/26 08:38:30;;;;;;;9.10;6.50;;;;;;;-148.56;100.00;61375.16;4943713;28;20037;-34
2021/06/26 08:41:54;;;;;;;7.25;6.07;;;;;;;-148.56;100.00;61375.16;4928044;28;20073;-35
2021/06/26 08:45:19;;;;;;;9.05;5.95;;;;;;;-148.56;100.00;61375.16;4925038;28;20034;-36
2021/06/26 08:48:46;;;;;;;9.45;5.35;;;;;;;-148.56;100.00;61375.16;4930213;28;20663;-34
2021/06/26 08:52:10;;;;;;;7.55;5.40;;;;;;;-148.56;100.00;61375.16;4929271;28;20041;-35
2021/06/26 08:55:34;;;;;;;6.47;5.03;;;;;;;-148.56;100.00;61375.16;4937808;28;20031;-32
2021/06/26 08:59:01;;;;;;;6.10;5.50;;;;;;;-148.56;100.00;61375.16;4927595;28;20059;-35
2021/06/26 09:02:26;;;;;;;8.43;6.18;;;;;;;-148.56;100.00;61375.16;4920107;28;20529;-36
2021/06/26 09:05:50;;;;;;;5.68;4.90;;;;;;;-148.56;100.00;61375.16;4938476;28;20019;-34
2021/06/26 09:09:37;;;;;;;7.47;4.75;;;;;;;-148.56;100.00;61375.16;4937193;28;20041;-32
2021/06/26 09:13:11;;;;;;;5.65;5.05;;;;;;;-148.56;100.00;61375.16;4930247;28;20043;-35
2021/06/26 09:16:35;;;;;;;5.65;4.90;;;;;;;-148.56;100.00;61375.16;4930971;28;20619;-32
2021/06/26 09:20:09;;;;;;;6.57;5.05;;;;;;;-148.56;100.00;61375.16;4936749;28;20573;-35
2021/06/26 09:23:37;;;;;;;9.88;5.00;;;;;;;-148.56;100.00;61375.16;4940609;28;20038;-33
2021/06/26 09:27:05;;;;;;;5.20;4.70;;;;;;;-148.56;100.00;61375.16;4935523;28;20629;-31
2021/06/26 09:30:35;;;;;;;5.82;4.68;;;;;;;-148.56;100.00;61375.16;4944021;28;20035;-37
2021/06/26 09:34:00;;;;;;;6.47;4.65;;;;;;;-148.56;100.00;61375.16;4930356;28;20046;-37
2021/06/26 09:37:28;;;;;;;9.13;5.88;;;;;;;-148.56;100.00;61375.16;4934635;28;20043;-36
2021/06/26 09:40:07;;;;;;;10.38;5.78;;;;;;;28.46;36.24;96875.84;4933972;28;20034;-36
2021/06/26 09:42:39;;;;;;;7.35;5.43;;;;;;;28.07;34.75;96818.44;4946185;28;21021;-35
2021/06/26 09:45:09;;;;;;;7.45;5.90;;;;;;;28.06;34.61;96818.56;4934277;28;20038;-36
2021/06/26 09:47:34;;;;;;;11.45;5.53;;;;;;;28.04;34.77;96805.47;4925481;28;20050;-36
2021/06/26 09:50:09;;;;;;;8.32;5.75;;;;;;;28.04;34.65;96816.00;4927489;28;20810;-31
2021/06/26 09:52:56;;;;;;;7.68;5.32;;;;;;;28.05;34.72;96807.16;4928292;28;20581;-34
2021/06/26 09:55:25;;;;;;;9.60;5.57;;;;;;;28.06;34.75;96808.00;4925259;28;20198;-33
2021/06/26 09:57:52;;;;;;;8.10;5.55;;;;;;;28.07;35.10;96801.81;4931382;28;20023;-35
2021/06/26 10:00:19;;;;;;;15.68;5.95;;;;;;;28.08;35.20;96811.38;4924615;28;20028;-35
2021/06/26 10:02:44;;;;;;;8.82;5.68;;;;;;;28.08;35.28;96814.88;4942135;28;20336;-34
2021/06/26 10:05:10;;;;;;;7.22;6.03;;;;;;;28.09;35.15;96803.41;4922679;28;20730;-32
2021/06/26 10:07:37;;;;;;;7.53;5.28;;;;;;;28.11;35.25;96809.41;4927064;28;20097;-38
2021/06/26 10:10:02;;;;;;;7.63;5.70;;;;;;;28.12;35.33;96797.94;4935336;28;20339;-34
2021/06/26 10:12:29;;;;;;;11.60;5.65;;;;;;;28.13;34.94;96799.63;4938359;28;20110;-34
2021/06/26 10:14:54;;;;;;;8.93;5.60;;;;;;;28.13;35.06;96797.00;4924327;28;20028;-35
2021/06/26 10:17:21;;;;;;;7.35;5.15;;;;;;;28.15;35.01;96797.72;4930645;28;20522;-34
2021/06/26 10:19:46;;;;;;;7.28;4.75;;;;;;;28.16;35.14;96804.72;4927713;28;20034;-31
2021/06/26 10:22:12;;;;;;;5.45;4.93;;;;;;;28.18;35.12;96792.28;4927831;28;20031;-36
2021/06/26 10:24:37;;;;;;;9.52;5.60;;;;;;;28.21;34.90;96790.38;4925295;28;20077;-34
2021/06/26 10:27:03;;;;;;;5.90;5.15;;;;;;;28.22;34.95;96792.09;4926729;28;20043;-32
2021/06/26 10:29:34;;;;;;;6.55;5.40;;;;;;;28.22;34.67;96785.00;4924001;28;20085;-34
2021/06/26 10:32:10;;;;;;;6.18;5.15;;;;;;;28.22;34.44;96786.81;4925315;28;20078;-35
2021/06/26 10:34:43;;;;;;;6.20;5.15;;;;;;;28.22;34.55;96787.66;4926069;28;20112;-32
2021/06/26 10:37:15;;;;;;;9.95;5.22;;;;;;;28.21;34.47;96775.41;4929403;28;20728;-33
2021/06/26 10:39:40;;;;;;;12.73;4.93;;;;;;;28.22;34.37;96786.81;4926747;28;20038;-28
2021/06/26 10:42:11;;;;;;;7.78;4.40;;;;;;;28.23;34.24;96777.97;4932495;28;20027;-38
2021/06/26 10:44:40;;;;;;;6.63;4.70;;;;;;;28.23;33.98;96783.22;4927119;28;20030;-35
2021/06/26 10:47:06;;;;;;;5.93;4.60;;;;;;;28.21;33.76;96772.78;4940074;28;20373;-33
2021/06/26 10:49:31;;;;;;;4.93;4.30;;;;;;;28.23;34.08;96777.97;4923222;28;20038;-35
2021/06/26 10:52:13;;;;;;;4.70;4.18;;;;;;;28.22;34.13;96781.56;4926148;28;20027;-37
2021/06/26 10:54:52;;;;;;;9.10;4.43;;;;;;;28.23;33.58;96783.22;4924857;28;20061;-32
2021/06/26 10:57:17;;;;;;;9.52;4.40;;;;;;;28.22;33.68;96774.47;4930026;28;20035;-32
2021/06/26 10:59:56;;;;;;;7.00;4.43;;;;;;;28.22;33.76;96781.56;4929258;28;20046;-34
2021/06/26 11:02:21;;;;;;;6.18;4.65;;;;;;;28.22;34.13;96781.56;4921456;28;20043;-35
2021/06/26 11:04:47;;;;;;;5.82;4.40;;;;;;;28.22;34.21;96765.75;4930325;28;20094;-38
2021/06/26 11:07:12;;;;;;;9.48;4.75;;;;;;;28.22;34.10;96776.28;4953595;28;20108;-35
2021/06/26 11:09:38;;;;;;;5.20;4.70;;;;;;;28.22;33.95;96769.19;4940641;28;20950;-37
2021/06/26 11:12:22;;;;;;;4.75;4.20;;;;;;;28.24;34.30;96771.75;4923949;28;20031;-32
2021/06/26 11:14:52;;;;;;;6.40;4.68;;;;;;;28.25;34.58;96776.94;4931389;28;20114;-29
2021/06/26 11:17:18;;;;;;;6.57;4.70;;;;;;;28.27;34.51;96774.22;4929094;28;20034;-32
2021/06/26 11:19:44;;;;;;;4.90;4.40;;;;;;;28.28;34.46;96775.91;4926288;28;20047;-30
2021/06/26 11:22:11;;;;;;;6.10;4.72;;;;;;;28.29;34.47;96780.22;4926352;28;20042;-41
2021/06/26 11:24:38;;;;;;;5.78;4.95;;;;;;;28.31;34.55;96775.72;4942756;28;20134;-33
2021/06/26 11:27:04;;;;;;;5.30;4.80;;;;;;;28.31;34.42;96775.72;4922852;28;21089;-33
2021/06/26 11:29:33;;;;;;;6.05;3.90;;;;;;;28.32;34.41;96771.28;4922605;28;20081;-34
2021/06/26 11:32:00;;;;;;;5.15;4.40;;;;;;;28.32;34.69;96772.13;4925204;28;20116;-34
2021/06/26 11:34:25;;;;;;;5.18;4.47;;;;;;;28.34;34.67;96770.22;4925387;28;20031;-30
2021/06/26 11:36:59;;;;;;;5.18;4.68;;;;;;;28.35;34.76;96766.69;4924976;28;20034;-35
2021/06/26 11:39:24;;;;;;;5.07;4.28;;;;;;;28.35;34.74;96764.03;4923558;28;20129;-36
2021/06/26 11:41:49;;;;;;;6.03;4.45;;;;;;;28.36;34.76;96765.72;4923350;28;20489;-38
2021/06/26 11:44:15;;;;;;;7.47;4.53;;;;;;;28.37;34.49;96754.22;4955015;28;20441;-34
2021/06/26 11:46:40;;;;;;;4.70;4.13;;;;;;;28.38;34.40;96755.91;4923851;28;20305;-37
2021/06/26 11:49:06;;;;;;;5.82;4.43;;;;;;;28.38;34.43;96755.91;4920012;28;20747;-34
2021/06/26 11:51:31;;;;;;;4.65;3.95;;;;;;;28.39;34.30;96762.91;4922183;28;20030;-34
2021/06/26 11:53:57;;;;;;;7.03;4.80;;;;;;;28.39;34.43;96762.91;4927497;28;20034;-32
2021/06/26 11:56:22;;;;;;;6.75;4.38;;;;;;;28.40;34.42;96750.56;4925109;28;20026;-33
2021/06/26 11:58:49;;;;;;;5.00;4.35;;;;;;;28.40;34.24;96751.41;4924553;28;20027;-34
2021/06/26 12:01:15;;;;;;;6.15;4.70;;;;;;;28.40;34.03;96754.03;4923743;28;20070;-32
2021/06/26 12:03:41;;;;;;;7.03;4.35;;;;;;;28.41;34.31;96754.88;4926492;28;21073;-30
2021/06/26 12:06:14;;;;;;;8.18;4.63;;;;;;;28.37;34.53;96743.69;4926710;28;20066;-35
2021/06/26 12:08:53;;;;;;;5.60;4.30;;;;;;;28.42;34.58;96748.69;4939607;28;20078;-35